createdAt,value
2018-08-16T00:00:53.695Z,99.90
2018-08-16T00:02:58.634Z,99.90
2018-08-16T00:05:03.625Z,99.90
2018-08-16T00:07:08.649Z,99.90
2018-08-16T00:09:13.739Z,99.90
2018-08-16T00:11:19.139Z,99.90
2018-08-16T00:13:24.158Z,99.90
2018-08-16T00:15:29.225Z,99.90
2018-08-16T00:17:33.988Z,99.90
2018-08-16T00:19:39.359Z,99.90
2018-08-16T00:21:44.487Z,99.90
2018-08-16T00:23:49.522Z,99.90
2018-08-16T00:25:54.500Z,99.90
2018-08-16T00:27:59.555Z,99.90
2018-08-16T00:30:05.905Z,99.90
2018-08-16T00:32:10.853Z,99.90
2018-08-16T00:34:15.656Z,99.90
2018-08-16T00:36:20.604Z,99.90
2018-08-16T00:38:25.697Z,99.90
2018-08-16T00:40:30.969Z,99.90
2018-08-16T00:42:36.093Z,99.90
2018-08-16T00:44:41.158Z,99.90
2018-08-16T00:46:46.022Z,99.90
2018-08-16T00:48:51.068Z,99.90
2018-08-16T00:50:55.916Z,99.90
2018-08-16T00:53:00.866Z,99.90
2018-08-16T00:55:07.307Z,99.90
2018-08-16T00:57:12.099Z,99.90
2018-08-16T00:59:16.904Z,99.90
2018-08-16T01:01:21.888Z,99.90
2018-08-16T01:03:26.988Z,99.90
2018-08-16T01:05:32.017Z,99.90
2018-08-16T01:07:37.013Z,99.90
2018-08-16T01:09:42.024Z,99.90
2018-08-16T01:11:47.123Z,99.90
2018-08-16T01:13:52.384Z,99.90
2018-08-16T01:15:57.202Z,99.90
2018-08-16T01:18:02.123Z,99.90
2018-08-16T01:20:07.573Z,99.90
2018-08-16T01:22:12.500Z,99.90
2018-08-16T01:24:17.518Z,99.90
2018-08-16T01:26:22.567Z,99.90
2018-08-16T01:28:27.491Z,99.90
2018-08-16T01:30:32.820Z,99.90
2018-08-16T01:32:37.684Z,99.90
2018-08-16T01:34:42.706Z,99.90
2018-08-16T01:36:47.631Z,99.90
2018-08-16T01:38:52.636Z,99.90
2018-08-16T01:40:57.991Z,99.90
2018-08-16T01:43:02.889Z,99.90
2018-08-16T01:45:08.436Z,99.90
2018-08-16T01:47:13.378Z,99.90
2018-08-16T01:49:33.883Z,99.90
2018-08-16T01:51:38.779Z,99.90
2018-08-16T01:53:43.632Z,99.90
2018-08-16T01:55:48.761Z,99.90
2018-08-16T01:57:54.198Z,99.90
2018-08-16T01:59:59.246Z,99.90
2018-08-16T02:02:04.817Z,99.90
2018-08-16T02:04:09.800Z,99.90
2018-08-16T02:06:14.882Z,99.90
2018-08-16T02:08:19.744Z,99.90
2018-08-16T02:10:24.989Z,99.90
2018-08-16T02:12:29.983Z,99.90
2018-08-16T02:14:35.000Z,99.90
2018-08-16T02:16:40.237Z,99.90
2018-08-16T02:18:45.585Z,99.90
2018-08-16T02:20:50.878Z,99.90
2018-08-16T02:22:55.842Z,99.90
2018-08-16T02:25:00.774Z,99.90
2018-08-16T02:27:06.175Z,99.90
2018-08-16T02:29:11.190Z,99.90
2018-08-16T02:31:16.218Z,99.90
2018-08-16T02:33:21.373Z,99.90
2018-08-16T02:35:26.438Z,99.90
2018-08-16T02:37:31.716Z,99.90
2018-08-16T02:39:37.168Z,99.90
2018-08-16T02:41:42.149Z,99.90
2018-08-16T02:43:47.150Z,99.90
2018-08-16T02:45:52.187Z,99.90
2018-08-16T02:47:57.017Z,99.90
2018-08-16T02:50:01.975Z,99.90
2018-08-16T02:52:07.325Z,99.90
2018-08-16T02:54:12.486Z,99.90
2018-08-16T02:56:17.667Z,99.90
2018-08-16T02:58:22.695Z,99.90
2018-08-16T03:00:27.607Z,99.90
2018-08-16T03:02:32.571Z,99.90
2018-08-16T03:04:37.669Z,99.90
2018-08-16T03:06:42.962Z,99.90
2018-08-16T03:08:48.055Z,99.90
2018-08-16T03:10:53.375Z,99.90
2018-08-16T03:12:58.840Z,99.90
2018-08-16T03:15:03.999Z,99.90
2018-08-16T03:17:09.141Z,99.90
2018-08-16T03:19:14.210Z,99.90
2018-08-16T03:21:19.468Z,99.90
2018-08-16T03:23:24.734Z,99.90
2018-08-16T03:25:30.030Z,99.90
2018-08-16T03:27:34.905Z,99.90
2018-08-16T03:29:39.903Z,99.90
2018-08-16T03:31:44.933Z,99.90
2018-08-16T03:33:49.872Z,99.90
2018-08-16T03:35:54.987Z,99.90
2018-08-16T03:37:59.902Z,99.90
2018-08-16T03:40:05.528Z,99.90
2018-08-16T03:42:10.477Z,99.90
2018-08-16T03:44:15.337Z,99.90
2018-08-16T03:46:20.133Z,99.90
2018-08-16T03:48:25.147Z,99.90
2018-08-16T03:50:30.065Z,99.90
2018-08-16T03:52:35.079Z,99.90
2018-08-16T03:54:40.091Z,99.90
2018-08-16T03:56:45.136Z,99.90
2018-08-16T03:58:50.030Z,99.90
2018-08-16T04:00:55.010Z,99.90
2018-08-16T04:02:59.841Z,99.90
2018-08-16T04:05:05.229Z,99.90
2018-08-16T04:07:10.166Z,99.90
2018-08-16T04:09:15.219Z,99.90
2018-08-16T04:11:20.404Z,99.90
2018-08-16T04:13:25.387Z,99.90
2018-08-16T04:15:30.240Z,99.90
2018-08-16T04:17:36.825Z,99.90
2018-08-16T04:19:41.847Z,99.90
2018-08-16T04:21:46.636Z,99.90
2018-08-16T04:23:51.578Z,99.90
2018-08-16T04:25:56.517Z,99.90
2018-08-16T04:28:01.482Z,99.90
2018-08-16T04:30:07.398Z,99.90
2018-08-16T04:32:12.318Z,99.90
2018-08-16T04:34:17.143Z,99.90
2018-08-16T04:36:22.103Z,99.90
2018-08-16T04:38:27.051Z,99.90
2018-08-16T04:40:31.982Z,99.90
2018-08-16T04:42:36.860Z,99.90
2018-08-16T04:44:41.812Z,99.90
2018-08-16T04:46:46.726Z,99.90
2018-08-16T04:48:51.681Z,99.90
2018-08-16T04:50:56.696Z,99.90
2018-08-16T04:53:01.871Z,99.90
2018-08-16T04:55:08.530Z,99.90
2018-08-16T04:57:13.531Z,99.90
2018-08-16T04:59:18.437Z,99.90
2018-08-16T05:01:23.615Z,99.90
2018-08-16T05:03:28.988Z,99.90
2018-08-16T05:05:34.802Z,99.90
2018-08-16T05:09:53.539Z,99.90
2018-08-16T05:11:58.652Z,99.90
2018-08-16T05:14:04.461Z,99.90
2018-08-16T05:16:09.496Z,99.90
2018-08-16T05:18:14.727Z,99.90
2018-08-16T05:20:19.636Z,99.90
2018-08-16T05:22:24.734Z,99.90
2018-08-16T05:24:29.831Z,99.90
2018-08-16T05:26:34.928Z,99.90
2018-08-16T05:28:39.874Z,99.90
2018-08-16T05:30:48.192Z,99.90
2018-08-16T05:32:53.417Z,99.90
2018-08-16T05:34:58.437Z,99.90
2018-08-16T05:37:03.655Z,99.90
2018-08-16T05:39:11.473Z,99.90
2018-08-16T05:41:16.455Z,99.90
2018-08-16T05:43:21.623Z,99.90
2018-08-16T05:45:27.267Z,99.90
2018-08-16T05:47:32.301Z,99.90
2018-08-16T05:49:37.260Z,99.90
2018-08-16T05:51:42.291Z,99.90
2018-08-16T05:53:47.475Z,99.90
2018-08-16T05:55:52.433Z,99.90
2018-08-16T05:57:57.273Z,99.90
2018-08-16T06:00:02.324Z,99.90
2018-08-16T06:02:07.642Z,99.90
2018-08-16T06:04:12.603Z,99.90
2018-08-16T06:06:17.584Z,99.90
2018-08-16T06:08:22.445Z,99.90
2018-08-16T06:10:27.509Z,99.90
2018-08-16T06:12:32.712Z,99.90
2018-08-16T06:14:38.037Z,99.90
2018-08-16T06:18:53.166Z,99.90
2018-08-16T06:20:58.142Z,99.90
2018-08-16T06:23:03.182Z,99.90
2018-08-16T06:25:11.787Z,99.90
2018-08-16T06:27:17.206Z,99.90
2018-08-16T06:29:22.161Z,99.90
2018-08-16T06:31:27.351Z,99.90
2018-08-16T06:33:32.442Z,99.90
2018-08-16T06:35:37.581Z,99.90
2018-08-16T06:37:42.620Z,99.90
2018-08-16T06:39:47.591Z,99.90
2018-08-16T06:41:56.540Z,99.90
2018-08-16T06:44:01.534Z,99.90
2018-08-16T06:46:06.533Z,99.90
2018-08-16T06:48:11.718Z,99.90
2018-08-16T06:50:16.715Z,99.90
2018-08-16T06:52:23.004Z,99.90
2018-08-16T06:54:29.607Z,99.90
2018-08-16T06:56:35.622Z,99.90
2018-08-16T06:58:41.612Z,99.90
2018-08-16T07:00:46.757Z,99.90
2018-08-16T07:02:52.093Z,99.90
2018-08-16T07:04:57.336Z,99.90
2018-08-16T07:07:02.518Z,99.90
2018-08-16T07:09:11.036Z,99.90
2018-08-16T07:11:16.513Z,99.90
2018-08-16T07:13:21.933Z,99.90
2018-08-16T07:15:26.920Z,99.90
2018-08-16T07:17:31.799Z,99.90
2018-08-16T07:19:36.948Z,99.90
2018-08-16T07:21:41.828Z,99.90
2018-08-16T07:23:46.737Z,99.90
2018-08-16T07:25:52.012Z,99.90
2018-08-16T07:27:56.921Z,99.90
2018-08-16T07:30:02.047Z,99.90
2018-08-16T07:32:07.192Z,99.90
2018-08-16T07:34:12.149Z,99.90
2018-08-16T07:36:19.151Z,99.90
2018-08-16T07:38:24.335Z,99.90
2018-08-16T07:40:29.560Z,99.80
2018-08-16T07:42:34.877Z,99.40
2018-08-16T07:44:39.987Z,99.20
2018-08-16T07:46:45.047Z,99.30
2018-08-16T07:48:50.194Z,99.30
2018-08-16T07:50:55.218Z,99.10
2018-08-16T07:53:00.182Z,97.80
2018-08-16T07:55:05.662Z,97.50
2018-08-16T07:57:10.593Z,97.50
2018-08-16T07:59:15.431Z,97.40
2018-08-16T08:01:20.615Z,97.50
2018-08-16T08:03:25.677Z,97.80
2018-08-16T08:05:30.570Z,97.80
2018-08-16T08:07:35.643Z,98.00
2018-08-16T08:09:40.577Z,97.90
2018-08-16T08:11:45.667Z,97.70
2018-08-16T08:13:50.592Z,97.60
2018-08-16T08:15:55.864Z,98.00
2018-08-16T08:18:01.007Z,98.20
2018-08-16T08:20:08.844Z,97.90
2018-08-16T08:22:13.866Z,97.80
2018-08-16T08:24:18.853Z,97.80
2018-08-16T08:26:23.759Z,98.10
2018-08-16T08:28:28.752Z,98.10
2018-08-16T08:30:33.739Z,97.40
2018-08-16T08:32:39.298Z,97.00
2018-08-16T08:34:44.259Z,97.00
2018-08-16T08:37:05.788Z,97.20
2018-08-16T08:39:11.346Z,96.60
2018-08-16T08:41:18.061Z,96.10
2018-08-16T08:43:39.569Z,95.30
2018-08-16T08:45:46.677Z,94.90
2018-08-16T08:47:56.867Z,95.40
2018-08-16T08:50:01.893Z,95.80
2018-08-16T08:52:07.749Z,96.10
2018-08-16T08:54:56.883Z,96.30
2018-08-16T08:57:18.348Z,96.20
2018-08-16T08:59:23.209Z,96.20
2018-08-16T09:01:30.378Z,95.20
2018-08-16T09:03:35.438Z,95.50
2018-08-16T09:05:40.347Z,95.60
2018-08-16T09:07:54.709Z,95.60
2018-08-16T09:11:15.091Z,95.30
2018-08-16T09:13:40.545Z,95.20
2018-08-16T09:15:50.587Z,95.70
2018-08-16T09:17:55.846Z,95.80
2018-08-16T09:20:07.153Z,95.90
2018-08-16T09:22:12.126Z,96.00
2018-08-16T09:24:17.223Z,95.90
2018-08-16T09:26:27.300Z,95.80
2018-08-16T09:28:32.377Z,95.50
2018-08-16T09:30:53.749Z,95.70
2018-08-16T09:33:15.288Z,95.70
2018-08-16T09:35:20.494Z,95.30
2018-08-16T09:37:30.656Z,94.90
2018-08-16T09:39:35.793Z,94.10
2018-08-16T09:41:40.826Z,94.00
2018-08-16T09:43:45.671Z,94.20
2018-08-16T09:47:07.752Z,93.60
2018-08-16T09:49:13.327Z,92.90
2018-08-16T09:51:18.440Z,93.50
2018-08-16T09:53:23.389Z,92.90
2018-08-16T09:55:30.720Z,93.00
2018-08-16T09:57:35.770Z,92.70
2018-08-16T09:59:41.012Z,92.80
2018-08-16T10:01:46.114Z,93.20
2018-08-16T10:03:51.169Z,93.20
2018-08-16T10:05:56.349Z,93.20
2018-08-16T10:08:01.609Z,93.60
2018-08-16T10:10:06.895Z,93.70
2018-08-16T10:12:12.738Z,93.60
2018-08-16T10:14:18.119Z,93.70
2018-08-16T10:16:22.937Z,93.70
2018-08-16T10:18:28.380Z,93.40
2018-08-16T10:20:33.825Z,93.10
2018-08-16T10:22:38.855Z,92.40
2018-08-16T10:24:43.845Z,92.30
2018-08-16T10:26:48.882Z,91.50
2018-08-16T10:28:54.218Z,91.10
2018-08-16T10:30:59.481Z,90.90
2018-08-16T10:33:04.842Z,91.30
2018-08-16T10:35:09.752Z,91.50
2018-08-16T10:37:14.940Z,91.10
2018-08-16T10:39:19.899Z,91.70
2018-08-16T10:41:24.751Z,91.30
2018-08-16T10:43:29.674Z,89.70
2018-08-16T10:45:34.522Z,89.40
2018-08-16T10:47:39.637Z,90.10
2018-08-16T10:49:44.569Z,90.10
2018-08-16T10:51:49.783Z,90.30
2018-08-16T10:53:54.783Z,90.40
2018-08-16T10:56:00.638Z,90.00
2018-08-16T10:58:05.840Z,90.10
2018-08-16T11:00:10.771Z,90.50
2018-08-16T11:02:15.742Z,90.70
2018-08-16T11:04:20.770Z,90.60
2018-08-16T11:06:25.901Z,90.30
2018-08-16T11:08:30.989Z,90.50
2018-08-16T11:10:35.906Z,90.20
2018-08-16T11:12:40.835Z,90.60
2018-08-16T11:14:45.843Z,90.20
2018-08-16T11:16:50.958Z,90.80
2018-08-16T11:18:56.076Z,90.70
2018-08-16T11:21:01.014Z,90.40
2018-08-16T11:23:06.211Z,89.80
2018-08-16T11:25:12.854Z,89.20
2018-08-16T11:27:18.069Z,88.50
2018-08-16T11:29:23.255Z,88.10
2018-08-16T11:31:28.290Z,89.10
2018-08-16T11:33:33.316Z,89.10
2018-08-16T11:35:38.512Z,89.20
2018-08-16T11:37:43.648Z,88.70
2018-08-16T11:39:48.847Z,88.70
2018-08-16T11:41:54.458Z,88.00
2018-08-16T11:43:59.488Z,88.90
2018-08-16T11:46:04.562Z,88.70
2018-08-16T11:48:10.000Z,89.10
2018-08-16T11:50:15.210Z,88.90
2018-08-16T11:52:20.301Z,89.20
2018-08-16T11:54:25.316Z,88.90
2018-08-16T11:56:30.710Z,86.60
2018-08-16T11:58:36.330Z,87.00
2018-08-16T12:00:41.519Z,85.50
2018-08-16T12:02:46.536Z,85.70
2018-08-16T12:04:51.461Z,84.20
2018-08-16T12:06:56.520Z,83.90
2018-08-16T12:09:01.315Z,84.00
2018-08-16T12:11:07.536Z,85.10
2018-08-16T12:13:12.358Z,84.80
2018-08-16T12:15:17.465Z,84.20
2018-08-16T12:17:22.620Z,84.00
2018-08-16T12:19:27.715Z,84.10
2018-08-16T12:21:32.499Z,82.20
2018-08-16T12:23:37.752Z,82.50
2018-08-16T12:25:42.582Z,82.70
2018-08-16T12:27:47.636Z,83.90
2018-08-16T12:29:52.398Z,84.10
2018-08-16T12:31:57.366Z,83.20
2018-08-16T12:34:02.488Z,83.40
2018-08-16T12:36:07.759Z,83.80
2018-08-16T12:38:12.749Z,84.40
2018-08-16T12:40:17.745Z,83.90
2018-08-16T12:42:22.892Z,81.50
2018-08-16T12:44:27.724Z,80.30
2018-08-16T12:46:32.645Z,81.70
2018-08-16T12:48:37.548Z,82.30
2018-08-16T12:50:42.291Z,82.70
2018-08-16T12:52:47.260Z,82.20
2018-08-16T12:54:52.485Z,79.60
2018-08-16T12:56:57.556Z,80.30
2018-08-16T12:59:02.831Z,81.20
2018-08-16T13:01:07.849Z,80.00
2018-08-16T13:03:13.141Z,78.00
2018-08-16T13:05:18.451Z,77.90
2018-08-16T13:07:23.325Z,77.40
2018-08-16T13:09:28.522Z,77.10
2018-08-16T13:11:33.645Z,75.40
2018-08-16T13:13:38.710Z,76.00
2018-08-16T13:15:44.090Z,76.00
2018-08-16T13:17:49.526Z,74.50
2018-08-16T13:19:59.400Z,74.70
2018-08-16T13:22:04.434Z,74.60
2018-08-16T13:24:11.052Z,74.50
2018-08-16T13:26:19.797Z,74.50
2018-08-16T13:28:24.654Z,75.10
2018-08-16T13:30:29.542Z,75.70
2018-08-16T13:32:34.310Z,76.00
2018-08-16T13:34:39.058Z,73.80
2018-08-16T13:36:43.995Z,74.00
2018-08-16T13:38:48.998Z,74.40
2018-08-16T13:40:53.887Z,73.90
2018-08-16T13:42:59.000Z,73.20
2018-08-16T13:45:04.185Z,73.10
2018-08-16T13:47:09.205Z,71.00
2018-08-16T13:49:14.116Z,71.40
2018-08-16T13:51:19.179Z,71.10
2018-08-16T13:53:24.050Z,70.00
2018-08-16T13:55:28.917Z,69.70
2018-08-16T13:57:33.828Z,69.90
2018-08-16T13:59:39.063Z,70.70
2018-08-16T14:01:44.022Z,70.20
2018-08-16T14:03:48.888Z,69.30
2018-08-16T14:05:53.775Z,70.20
2018-08-16T14:07:58.566Z,69.30
2018-08-16T14:10:03.414Z,71.00
2018-08-16T14:12:08.459Z,69.20
2018-08-16T14:14:13.417Z,69.30
2018-08-16T14:16:18.324Z,69.40
2018-08-16T14:18:23.420Z,68.60
2018-08-16T14:20:28.281Z,68.50
2018-08-16T14:22:33.404Z,68.10
2018-08-16T14:24:38.483Z,68.20
2018-08-16T14:26:44.520Z,67.80
2018-08-16T14:28:49.208Z,67.20
2018-08-16T14:30:54.104Z,66.10
2018-08-16T14:32:58.834Z,65.60
2018-08-16T14:35:03.698Z,66.30
2018-08-16T14:37:08.546Z,66.90
2018-08-16T14:39:13.821Z,67.70
2018-08-16T14:41:18.617Z,65.50
2018-08-16T14:43:23.464Z,65.60
2018-08-16T14:45:28.415Z,65.80
2018-08-16T14:47:33.320Z,66.20
2018-08-16T14:49:38.234Z,66.80
2018-08-16T14:51:43.015Z,65.80
2018-08-16T14:53:47.909Z,65.00
2018-08-16T14:55:52.696Z,65.00
2018-08-16T14:57:57.608Z,65.80
2018-08-16T15:00:02.842Z,66.10
2018-08-16T15:02:07.906Z,66.60
2018-08-16T15:04:13.039Z,67.40
2018-08-16T15:06:19.009Z,65.50
2018-08-16T15:08:23.973Z,65.30
2018-08-16T15:10:28.895Z,63.70
2018-08-16T15:12:34.009Z,63.10
2018-08-16T15:14:38.904Z,62.50
2018-08-16T15:16:44.448Z,62.00
2018-08-16T15:18:49.249Z,63.50
2018-08-16T15:20:54.245Z,64.40
2018-08-16T15:22:59.173Z,63.80
2018-08-16T15:25:04.553Z,62.70
2018-08-16T15:27:09.802Z,61.80
2018-08-16T15:29:15.247Z,63.00
2018-08-16T15:31:20.410Z,63.40
2018-08-16T15:33:25.446Z,61.50
2018-08-16T15:35:30.224Z,62.20
2018-08-16T15:37:35.399Z,61.60
2018-08-16T15:39:40.286Z,62.00
2018-08-16T15:41:45.179Z,62.60
2018-08-16T15:43:50.115Z,61.90
2018-08-16T15:45:55.279Z,62.20
2018-08-16T15:48:00.511Z,61.70
2018-08-16T15:50:05.595Z,61.10
2018-08-16T15:52:10.542Z,61.50
2018-08-16T15:54:15.397Z,61.30
2018-08-16T15:56:21.357Z,61.70
2018-08-16T15:58:26.723Z,61.40
2018-08-16T16:00:32.345Z,61.00
2018-08-16T16:02:37.410Z,61.30
2018-08-16T16:04:42.613Z,61.10
2018-08-16T16:06:47.747Z,60.80
2018-08-16T16:08:53.009Z,60.20
2018-08-16T16:11:04.503Z,59.40
2018-08-16T16:13:10.033Z,59.30
2018-08-16T16:15:15.145Z,58.30
2018-08-16T16:17:20.523Z,57.70
2018-08-16T16:19:25.398Z,57.70
2018-08-16T16:21:30.772Z,56.60
2018-08-16T16:23:36.767Z,56.80
2018-08-16T16:25:42.548Z,55.90
2018-08-16T16:27:48.446Z,55.90
2018-08-16T16:29:53.648Z,55.60
2018-08-16T16:31:59.005Z,55.80
2018-08-16T16:34:03.868Z,54.70
2018-08-16T16:36:10.315Z,55.50
2018-08-16T16:38:15.245Z,55.60
2018-08-16T16:40:20.131Z,54.30
2018-08-16T16:42:25.129Z,54.90
2018-08-16T16:44:30.489Z,54.60
2018-08-16T16:46:35.353Z,55.30
2018-08-16T16:48:40.293Z,56.00
2018-08-16T16:50:45.161Z,56.70
2018-08-16T16:52:50.093Z,56.80
2018-08-16T16:54:54.964Z,56.60
2018-08-16T16:56:59.867Z,56.60
2018-08-16T16:59:04.805Z,57.20
2018-08-16T17:01:09.997Z,57.10
2018-08-16T17:03:14.950Z,57.40
2018-08-16T17:05:19.907Z,57.50
2018-08-16T17:07:24.929Z,57.70
2018-08-16T17:09:30.204Z,58.00
2018-08-16T17:11:35.513Z,57.50
2018-08-16T17:13:40.544Z,57.40
2018-08-16T17:15:45.507Z,57.30
2018-08-16T17:17:51.640Z,56.90
2018-08-16T17:19:57.315Z,56.90
2018-08-16T17:22:02.320Z,56.50
2018-08-16T17:24:07.498Z,55.70
2018-08-16T17:26:12.406Z,56.00
2018-08-16T17:28:17.357Z,55.90
2018-08-16T17:30:22.242Z,56.50
2018-08-16T17:32:28.100Z,56.80
2018-08-16T17:34:33.219Z,57.10
2018-08-16T17:36:38.140Z,57.20
2018-08-16T17:38:43.132Z,57.70
2018-08-16T17:40:48.176Z,57.50
2018-08-16T17:42:53.070Z,57.90
2018-08-16T17:44:58.061Z,57.70
2018-08-16T17:47:03.159Z,57.70
2018-08-16T17:49:08.026Z,58.30
2018-08-16T17:51:13.504Z,58.50
2018-08-16T17:53:18.548Z,58.70
2018-08-16T17:55:23.623Z,59.90
2018-08-16T17:57:28.677Z,60.80
2018-08-16T17:59:33.812Z,61.60
2018-08-16T18:01:58.136Z,62.10
2018-08-16T18:04:03.287Z,61.80
2018-08-16T18:06:08.344Z,62.00
2018-08-16T18:08:13.407Z,62.00
2018-08-16T18:10:18.770Z,62.10
2018-08-16T18:12:25.236Z,61.80
2018-08-16T18:14:30.968Z,62.00
2018-08-16T18:16:37.016Z,62.40
2018-08-16T18:18:42.790Z,63.10
2018-08-16T18:20:47.839Z,63.70
2018-08-16T18:22:53.039Z,64.20
2018-08-16T18:24:58.186Z,64.60
2018-08-16T18:27:03.393Z,65.10
2018-08-16T18:29:08.729Z,65.40
2018-08-16T18:31:13.843Z,65.60
2018-08-16T18:33:19.562Z,65.60
2018-08-16T18:35:24.805Z,66.10
2018-08-16T18:37:29.982Z,66.70
2018-08-16T18:39:34.941Z,66.90
2018-08-16T18:41:40.202Z,67.90
2018-08-16T18:43:45.869Z,68.30
2018-08-16T18:45:53.039Z,68.80
2018-08-16T18:48:00.463Z,69.30
2018-08-16T18:50:05.945Z,68.90
2018-08-16T18:52:10.929Z,69.20
2018-08-16T18:54:16.061Z,69.50
2018-08-16T18:56:21.140Z,69.60
2018-08-16T18:58:30.202Z,70.70
2018-08-16T19:00:35.212Z,70.50
2018-08-16T19:02:40.594Z,71.00
2018-08-16T19:04:46.345Z,71.30
2018-08-16T19:06:51.303Z,71.50
2018-08-16T19:08:56.491Z,71.60
2018-08-16T19:11:01.836Z,72.00
2018-08-16T19:13:06.909Z,72.80
2018-08-16T19:15:11.889Z,72.80
2018-08-16T19:17:17.075Z,73.80
2018-08-16T19:19:22.423Z,74.50
2018-08-16T19:21:27.755Z,75.00
2018-08-16T19:23:33.207Z,75.50
2018-08-16T19:25:38.364Z,75.90
2018-08-16T19:27:45.952Z,76.40
2018-08-16T19:29:51.206Z,76.80
2018-08-16T19:31:57.729Z,77.20
2018-08-16T19:34:02.834Z,77.80
2018-08-16T19:36:11.027Z,78.40
2018-08-16T19:38:18.458Z,78.80
2018-08-16T19:40:23.873Z,79.10
2018-08-16T19:42:29.174Z,79.40
2018-08-16T19:44:35.515Z,80.00
2018-08-16T19:46:42.391Z,80.40
2018-08-16T19:48:47.929Z,80.90
2018-08-16T19:50:53.163Z,81.60
2018-08-16T19:52:58.484Z,82.00
2018-08-16T19:55:04.185Z,82.50
2018-08-16T19:57:09.536Z,82.90
2018-08-16T19:59:14.963Z,83.30
2018-08-16T20:01:20.367Z,84.00
2018-08-16T20:03:25.442Z,84.60
2018-08-16T20:05:30.501Z,85.00
2018-08-16T20:07:36.218Z,85.40
2018-08-16T20:09:41.276Z,86.00
2018-08-16T20:11:46.373Z,86.40
2018-08-16T20:13:51.483Z,86.70
2018-08-16T20:15:57.308Z,86.90
2018-08-16T20:18:03.507Z,87.30
2018-08-16T20:20:11.433Z,87.40
2018-08-16T20:22:20.166Z,87.90
2018-08-16T20:24:26.063Z,88.30
2018-08-16T20:26:31.061Z,88.80
2018-08-16T20:28:36.004Z,89.00
2018-08-16T20:30:40.980Z,89.30
2018-08-16T20:32:45.936Z,89.60
2018-08-16T20:34:51.166Z,90.10
2018-08-16T20:36:56.826Z,90.30
2018-08-16T20:39:01.916Z,90.40
2018-08-16T20:41:09.311Z,90.70
2018-08-16T20:43:17.133Z,90.90
2018-08-16T20:45:23.154Z,91.20
2018-08-16T20:47:28.529Z,91.30
2018-08-16T20:49:34.015Z,91.50
2018-08-16T20:51:38.904Z,91.70
2018-08-16T20:53:45.085Z,91.90
2018-08-16T20:55:50.922Z,92.10
2018-08-16T20:57:56.440Z,92.40
2018-08-16T21:00:01.688Z,92.60
2018-08-16T21:02:06.851Z,92.80
2018-08-16T21:04:12.120Z,93.20
2018-08-16T21:06:17.284Z,93.40
2018-08-16T21:08:22.579Z,93.60
2018-08-16T21:10:27.666Z,93.70
2018-08-16T21:12:33.688Z,93.80
2018-08-16T21:14:38.810Z,93.90
2018-08-16T21:16:43.905Z,93.90
2018-08-16T21:18:49.222Z,94.00
2018-08-16T21:20:54.366Z,94.30
2018-08-16T21:22:59.325Z,94.40
2018-08-16T21:25:04.475Z,94.50
2018-08-16T21:27:09.718Z,94.70
2018-08-16T21:29:15.500Z,94.80
2018-08-16T21:31:20.576Z,95.10
2018-08-16T21:33:25.762Z,95.30
2018-08-16T21:35:32.030Z,95.50
2018-08-16T21:37:37.983Z,95.80
2018-08-16T21:39:42.821Z,95.80
2018-08-16T21:41:50.184Z,96.10
2018-08-16T21:43:57.427Z,96.10
2018-08-16T21:46:02.325Z,96.40
2018-08-16T21:48:07.377Z,96.60
2018-08-16T21:50:12.250Z,96.70
2018-08-16T21:52:17.117Z,96.90
2018-08-16T21:54:21.936Z,97.00
2018-08-16T21:56:26.765Z,97.10
2018-08-16T21:58:31.600Z,97.10
2018-08-16T22:00:50.594Z,97.10
2018-08-16T22:02:55.440Z,97.30
2018-08-16T22:05:00.479Z,97.20
2018-08-16T22:07:11.421Z,97.30
2018-08-16T22:09:16.448Z,97.50
2018-08-16T22:11:21.376Z,97.50
2018-08-16T22:13:26.207Z,97.70
2018-08-16T22:15:31.200Z,97.90
2018-08-16T22:17:36.036Z,98.10
2018-08-16T22:19:40.884Z,98.30
2018-08-16T22:21:45.824Z,98.40
2018-08-16T22:23:50.658Z,98.30
2018-08-16T22:25:55.600Z,98.40
2018-08-16T22:28:00.549Z,98.30
2018-08-16T22:30:05.756Z,98.30
2018-08-16T22:32:10.680Z,98.30
2018-08-16T22:34:15.721Z,98.30
2018-08-16T22:36:20.840Z,98.50
2018-08-16T22:38:25.950Z,98.60
2018-08-16T22:40:30.873Z,98.70
2018-08-16T22:42:35.939Z,98.80
2018-08-16T22:44:41.012Z,98.60
2018-08-16T22:46:45.745Z,98.80
2018-08-16T22:48:50.620Z,98.90
2018-08-16T22:50:55.500Z,98.90
2018-08-16T22:53:00.562Z,99.00
2018-08-16T22:55:05.925Z,99.10
2018-08-16T22:57:10.976Z,99.20
2018-08-16T22:59:15.875Z,99.10
2018-08-16T23:01:20.871Z,99.20
2018-08-16T23:03:25.768Z,99.20
2018-08-16T23:05:30.749Z,99.20
2018-08-16T23:07:35.585Z,99.20
2018-08-16T23:09:40.425Z,99.20
2018-08-16T23:11:45.374Z,99.30
2018-08-16T23:13:50.337Z,99.30
2018-08-16T23:15:55.085Z,99.30
2018-08-16T23:18:00.134Z,99.40
2018-08-16T23:20:05.927Z,99.30
2018-08-16T23:22:10.845Z,99.40
2018-08-16T23:24:15.747Z,99.50
2018-08-16T23:26:20.772Z,99.60
2018-08-16T23:28:25.661Z,99.60
2018-08-16T23:30:30.530Z,99.70
2018-08-16T23:32:35.400Z,99.60
2018-08-16T23:34:40.253Z,99.50
2018-08-16T23:36:46.026Z,99.50
2018-08-16T23:38:50.938Z,99.70
2018-08-16T23:40:55.829Z,99.70
2018-08-16T23:43:00.920Z,99.80
2018-08-16T23:45:06.559Z,99.60
2018-08-16T23:47:11.541Z,99.60
2018-08-16T23:49:16.437Z,99.60
2018-08-16T23:51:21.205Z,99.60
2018-08-16T23:53:26.324Z,99.70
2018-08-16T23:55:31.101Z,99.80
2018-08-16T23:57:35.969Z,99.90
2018-08-16T23:59:40.779Z,99.90
